createdAt,value
2019-01-03T00:00:07.837Z,5.06
2019-01-03T00:03:11.284Z,5.06
2019-01-03T00:05:59.507Z,5.04
2019-01-03T00:08:45.139Z,5.03
2019-01-03T00:11:36.066Z,5.03
2019-01-03T00:14:24.120Z,4.96
2019-01-03T00:17:12.169Z,4.94
2019-01-03T00:19:59.015Z,4.97
2019-01-03T00:22:49.869Z,4.94
2019-01-03T00:25:55.972Z,4.94
2019-01-03T00:28:43.932Z,4.92
2019-01-03T00:31:43.802Z,4.92
2019-01-03T00:34:22.270Z,4.91
2019-01-03T00:37:09.162Z,4.93
2019-01-03T00:40:00.163Z,4.91
2019-01-03T00:42:48.072Z,4.94
2019-01-03T00:45:32.197Z,4.91
2019-01-03T00:48:28.958Z,4.91
2019-01-03T00:51:18.448Z,4.92
2019-01-03T00:54:06.387Z,4.93
2019-01-03T00:56:55.097Z,4.90
2019-01-03T00:59:44.996Z,4.92
2019-01-03T01:02:45.338Z,4.91
2019-01-03T01:05:39.242Z,4.91
2019-01-03T01:08:27.462Z,4.90
2019-01-03T01:11:30.768Z,4.94
2019-01-03T01:14:31.155Z,4.94
2019-01-03T01:17:25.217Z,4.97
2019-01-03T01:20:05.749Z,4.97
2019-01-03T01:23:00.115Z,4.97
2019-01-03T01:25:40.899Z,4.95
2019-01-03T01:28:24.310Z,4.95
2019-01-03T01:31:11.599Z,4.87
2019-01-03T01:34:02.129Z,4.87
2019-01-03T01:36:53.401Z,4.88
2019-01-03T01:39:51.834Z,4.86
2019-01-03T01:42:38.858Z,4.90
2019-01-03T01:45:36.102Z,4.90
2019-01-03T01:48:38.091Z,4.89
2019-01-03T01:51:24.895Z,4.89
2019-01-03T01:54:11.737Z,4.90
2019-01-03T01:57:09.021Z,4.92
2019-01-03T01:59:52.996Z,4.92
2019-01-03T02:02:41.045Z,4.92
2019-01-03T02:05:27.930Z,4.87
2019-01-03T02:08:11.897Z,4.87
2019-01-03T02:11:01.669Z,4.89
2019-01-03T02:13:48.572Z,4.89
2019-01-03T02:16:46.376Z,4.85
2019-01-03T02:19:31.421Z,4.84
2019-01-03T02:22:21.437Z,4.78
2019-01-03T02:25:12.441Z,4.78
2019-01-03T02:28:06.537Z,4.84
2019-01-03T02:30:59.992Z,4.81
2019-01-03T02:33:53.818Z,4.81
2019-01-03T02:36:41.760Z,4.81
2019-01-03T02:39:42.261Z,4.81
2019-01-03T02:42:45.613Z,4.81
2019-01-03T02:45:24.487Z,4.78
2019-01-03T02:48:11.035Z,4.81
2019-01-03T02:51:10.388Z,4.81
2019-01-03T02:53:57.607Z,4.80
2019-01-03T02:56:45.548Z,4.82
2019-01-03T02:59:36.252Z,4.85
2019-01-03T03:02:24.356Z,4.80
2019-01-03T03:05:11.384Z,4.78
2019-01-03T03:08:05.799Z,4.78
2019-01-03T03:10:53.209Z,4.78
2019-01-03T03:13:40.838Z,4.80
2019-01-03T03:16:27.750Z,4.82
2019-01-03T03:19:11.804Z,4.80
2019-01-03T03:21:50.633Z,4.81
2019-01-03T03:24:41.611Z,4.82
2019-01-03T03:27:38.529Z,4.79
2019-01-03T03:30:26.853Z,4.78
2019-01-03T03:33:14.862Z,4.78
2019-01-03T03:35:52.159Z,4.79
2019-01-03T03:38:39.100Z,4.79
2019-01-03T03:41:46.132Z,4.79
2019-01-03T03:44:33.818Z,4.75
2019-01-03T03:47:26.754Z,4.76
2019-01-03T03:50:17.780Z,4.77
2019-01-03T03:53:23.993Z,4.77
2019-01-03T03:56:11.959Z,4.75
2019-01-03T03:58:58.347Z,4.72
2019-01-03T04:01:49.195Z,4.68
2019-01-03T04:04:36.129Z,4.70
2019-01-03T04:07:36.446Z,4.70
2019-01-03T04:10:39.942Z,4.70
2019-01-03T04:13:38.244Z,4.71
2019-01-03T04:16:26.269Z,4.71
2019-01-03T04:19:14.223Z,4.69
2019-01-03T04:22:19.108Z,4.70
2019-01-03T04:25:18.537Z,4.70
2019-01-03T04:28:12.581Z,4.73
2019-01-03T04:30:59.330Z,4.74
2019-01-03T04:33:50.327Z,4.74
2019-01-03T04:36:40.950Z,4.76
2019-01-03T04:39:27.603Z,4.76
2019-01-03T04:42:07.597Z,4.73
2019-01-03T04:44:45.487Z,4.71
2019-01-03T04:47:33.443Z,4.74
2019-01-03T04:50:24.384Z,4.72
2019-01-03T04:53:15.225Z,4.72
2019-01-03T04:56:03.176Z,4.72
2019-01-03T04:58:51.145Z,4.75
2019-01-03T05:02:19.954Z,4.71
2019-01-03T05:04:59.982Z,4.71
2019-01-03T05:08:01.395Z,4.75
2019-01-03T05:10:52.472Z,4.73
2019-01-03T05:13:39.262Z,4.73
2019-01-03T05:16:26.332Z,4.78
2019-01-03T05:19:32.756Z,4.72
2019-01-03T05:22:30.019Z,4.72
2019-01-03T05:25:24.299Z,4.73
2019-01-03T05:28:10.953Z,4.73
2019-01-03T05:30:57.742Z,4.76
2019-01-03T05:33:45.724Z,4.74
2019-01-03T05:36:32.312Z,4.74
2019-01-03T05:39:21.950Z,4.73
2019-01-03T05:42:19.223Z,4.72
2019-01-03T05:45:06.037Z,4.72
2019-01-03T05:47:52.951Z,4.74
2019-01-03T05:50:39.803Z,4.76
2019-01-03T05:53:21.994Z,4.76
2019-01-03T05:56:08.741Z,4.73
2019-01-03T05:58:49.303Z,4.73
2019-01-03T06:01:37.290Z,4.72
2019-01-03T06:04:32.957Z,4.70
2019-01-03T06:07:30.084Z,4.69
2019-01-03T06:10:16.898Z,4.68
2019-01-03T06:12:58.019Z,4.65
2019-01-03T06:15:53.210Z,4.65
2019-01-03T06:18:39.989Z,4.64
2019-01-03T06:21:30.440Z,4.64
2019-01-03T06:24:15.145Z,4.64
2019-01-03T06:27:18.161Z,4.53
2019-01-03T06:30:15.119Z,4.49
2019-01-03T06:33:06.146Z,4.41
2019-01-03T06:35:53.855Z,4.37
2019-01-03T06:38:40.831Z,4.31
2019-01-03T06:41:28.812Z,4.31
2019-01-03T06:44:25.842Z,4.27
2019-01-03T06:47:19.790Z,4.24
2019-01-03T06:50:09.017Z,4.11
2019-01-03T06:52:56.962Z,4.11
2019-01-03T06:55:39.318Z,3.98
2019-01-03T06:58:30.134Z,3.94
2019-01-03T07:01:36.702Z,3.94
2019-01-03T07:04:23.097Z,3.94
2019-01-03T07:07:09.820Z,3.87
2019-01-03T07:10:04.594Z,3.87
2019-01-03T07:13:03.873Z,3.69
2019-01-03T07:15:57.973Z,3.60
2019-01-03T07:18:48.940Z,3.57
2019-01-03T07:21:39.708Z,3.51
2019-01-03T07:24:30.436Z,3.51
2019-01-03T07:27:24.538Z,3.44
2019-01-03T07:30:18.432Z,3.44
2019-01-03T07:33:04.335Z,3.38
2019-01-03T07:35:51.224Z,3.37
2019-01-03T07:38:38.046Z,3.33
2019-01-03T07:41:38.416Z,3.33
2019-01-03T07:44:25.179Z,3.31
2019-01-03T07:47:12.317Z,3.37
2019-01-03T07:50:00.264Z,3.40
2019-01-03T07:52:53.130Z,3.44
2019-01-03T07:55:40.246Z,3.49
2019-01-03T07:58:27.154Z,3.51
2019-01-03T08:01:07.425Z,3.54
2019-01-03T08:03:54.380Z,3.54
2019-01-03T08:06:41.334Z,3.59
2019-01-03T08:09:25.820Z,3.68
2019-01-03T08:12:12.635Z,3.70
2019-01-03T08:15:15.952Z,3.70
2019-01-03T08:18:04.008Z,3.77
2019-01-03T08:20:50.974Z,3.77
2019-01-03T08:23:42.276Z,3.84
2019-01-03T08:26:30.067Z,3.90
2019-01-03T08:29:29.134Z,3.96
2019-01-03T08:32:15.473Z,3.98
2019-01-03T08:35:01.721Z,3.98
2019-01-03T08:37:48.334Z,4.09
2019-01-03T08:40:35.079Z,4.14
2019-01-03T08:43:27.214Z,4.14
2019-01-03T08:46:18.398Z,4.14
2019-01-03T08:49:04.514Z,4.20
2019-01-03T08:52:01.548Z,4.28
2019-01-03T08:54:42.948Z,4.28
2019-01-03T08:57:30.057Z,4.40
2019-01-03T09:00:16.944Z,4.42
2019-01-03T09:03:03.560Z,4.47
2019-01-03T09:06:01.034Z,4.47
2019-01-03T09:08:49.296Z,4.51
2019-01-03T09:11:46.502Z,4.57
2019-01-03T09:14:40.091Z,4.62
2019-01-03T09:17:27.178Z,4.66
2019-01-03T09:20:33.590Z,4.73
2019-01-03T09:23:19.983Z,4.82
2019-01-03T09:26:17.293Z,4.82
2019-01-03T09:29:04.296Z,4.93
2019-01-03T09:31:49.635Z,4.93
2019-01-03T09:34:28.265Z,5.07
2019-01-03T09:37:31.292Z,5.13
2019-01-03T09:40:13.480Z,5.18
2019-01-03T09:43:00.077Z,5.18
2019-01-03T09:45:29.158Z,5.19
2019-01-03T09:47:58.161Z,5.19
2019-01-03T09:50:27.174Z,5.25
2019-01-03T09:52:56.253Z,5.26
2019-01-03T09:55:25.294Z,5.22
2019-01-03T09:57:54.309Z,5.38
2019-01-03T10:00:23.353Z,5.74
2019-01-03T10:02:52.366Z,5.74
2019-01-03T10:05:21.539Z,5.95
2019-01-03T10:07:50.539Z,6.17
2019-01-03T10:10:19.541Z,5.92
2019-01-03T10:12:48.612Z,5.92
2019-01-03T10:15:17.689Z,6.25
2019-01-03T10:17:46.669Z,6.25
2019-01-03T10:20:15.829Z,6.66
2019-01-03T10:22:46.416Z,6.66
2019-01-03T10:25:15.472Z,6.50
2019-01-03T10:27:44.607Z,6.51
2019-01-03T10:30:13.696Z,6.51
2019-01-03T10:32:43.584Z,6.72
2019-01-03T10:35:12.733Z,6.87
2019-01-03T10:37:41.750Z,6.81
2019-01-03T10:40:10.873Z,6.70
2019-01-03T10:42:39.983Z,6.70
2019-01-03T10:45:11.018Z,6.68
2019-01-03T10:47:40.036Z,6.68
2019-01-03T10:50:09.223Z,6.66
2019-01-03T10:52:38.239Z,6.76
2019-01-03T10:55:07.407Z,6.65
2019-01-03T10:57:36.470Z,6.70
2019-01-03T11:00:12.396Z,6.74
2019-01-03T11:02:41.358Z,6.63
2019-01-03T11:05:11.654Z,6.63
2019-01-03T11:07:40.881Z,6.54
2019-01-03T11:10:12.293Z,6.71
2019-01-03T11:12:41.321Z,6.71
2019-01-03T11:15:10.488Z,6.82
2019-01-03T11:17:39.498Z,6.82
2019-01-03T11:20:08.630Z,6.70
2019-01-03T11:22:37.621Z,6.84
2019-01-03T11:25:06.988Z,7.03
2019-01-03T11:27:36.002Z,7.09
2019-01-03T11:30:05.771Z,6.88
2019-01-03T11:32:34.828Z,7.02
2019-01-03T11:35:04.011Z,7.09
2019-01-03T11:37:33.081Z,7.06
2019-01-03T11:40:02.099Z,7.00
2019-01-03T11:42:31.188Z,7.00
2019-01-03T11:45:00.181Z,6.91
2019-01-03T11:47:29.200Z,6.63
2019-01-03T11:49:58.277Z,6.86
2019-01-03T11:52:27.292Z,6.80
2019-01-03T11:54:56.339Z,6.72
2019-01-03T11:57:26.414Z,6.72
2019-01-03T11:59:55.786Z,6.82
2019-01-03T12:02:25.779Z,6.84
2019-01-03T12:04:54.918Z,6.84
2019-01-03T12:07:23.908Z,6.86
2019-01-03T12:09:52.941Z,7.02
2019-01-03T12:12:21.994Z,7.02
2019-01-03T12:14:50.988Z,6.97
2019-01-03T12:17:20.017Z,6.80
2019-01-03T12:19:52.627Z,6.88
2019-01-03T12:22:21.645Z,6.92
2019-01-03T12:24:50.719Z,7.03
2019-01-03T12:27:19.798Z,7.03
2019-01-03T12:29:48.796Z,7.18
2019-01-03T12:32:17.823Z,7.18
2019-01-03T12:34:47.754Z,7.07
2019-01-03T12:37:16.728Z,7.07
2019-01-03T12:39:45.774Z,6.84
2019-01-03T12:42:14.784Z,6.79
2019-01-03T12:44:43.868Z,6.88
2019-01-03T12:47:13.182Z,6.88
2019-01-03T12:49:42.175Z,6.99
2019-01-03T12:52:11.206Z,7.00
2019-01-03T12:54:40.233Z,7.00
2019-01-03T12:57:09.294Z,7.01
2019-01-03T12:59:38.296Z,6.99
2019-01-03T13:02:08.598Z,6.85
2019-01-03T13:04:37.674Z,6.82
2019-01-03T13:07:06.685Z,6.71
2019-01-03T13:09:35.681Z,6.82
2019-01-03T13:12:04.820Z,6.82
2019-01-03T13:14:33.847Z,6.82
2019-01-03T13:17:06.024Z,6.79
2019-01-03T13:19:35.014Z,6.92
2019-01-03T13:22:04.095Z,7.04
2019-01-03T13:24:33.124Z,7.04
2019-01-03T13:27:02.584Z,6.96
2019-01-03T13:29:31.701Z,6.96
2019-01-03T13:32:00.671Z,7.00
2019-01-03T13:34:30.331Z,7.00
2019-01-03T13:36:59.374Z,6.95
2019-01-03T13:39:28.455Z,6.93
2019-01-03T13:41:57.464Z,7.01
2019-01-03T13:44:26.501Z,7.04
2019-01-03T13:46:55.514Z,6.90
2019-01-03T13:49:24.513Z,6.97
2019-01-03T13:51:53.613Z,6.97
2019-01-03T13:54:22.626Z,6.74
2019-01-03T13:56:51.876Z,6.92
2019-01-03T13:59:20.930Z,6.91
2019-01-03T14:01:50.017Z,6.79
2019-01-03T14:04:19.029Z,6.81
2019-01-03T14:06:48.144Z,6.75
2019-01-03T14:09:17.141Z,6.75
2019-01-03T14:11:46.315Z,6.68
2019-01-03T14:14:15.459Z,6.61
2019-01-03T14:16:44.548Z,6.61
2019-01-03T14:19:13.550Z,6.63
2019-01-03T14:21:42.574Z,6.59
2019-01-03T14:24:13.010Z,6.44
2019-01-03T14:26:42.134Z,6.44
2019-01-03T14:30:44.161Z,6.39
2019-01-03T14:33:13.132Z,6.41
2019-01-03T14:35:42.167Z,6.42
2019-01-03T14:38:11.280Z,6.42
2019-01-03T14:40:40.415Z,6.31
2019-01-03T14:43:09.452Z,6.35
2019-01-03T14:45:38.619Z,6.35
2019-01-03T14:48:07.698Z,6.28
2019-01-03T14:50:36.862Z,6.28
2019-01-03T14:53:05.850Z,6.18
2019-01-03T14:55:35.128Z,6.11
2019-01-03T14:58:04.297Z,6.11
2019-01-03T15:00:34.626Z,6.00
2019-01-03T15:03:03.644Z,6.00
2019-01-03T15:05:32.671Z,5.99
2019-01-03T15:08:01.680Z,5.92
2019-01-03T15:10:30.725Z,5.92
2019-01-03T15:12:59.744Z,5.87
2019-01-03T15:15:28.820Z,5.93
2019-01-03T15:17:57.802Z,5.81
2019-01-03T15:20:26.798Z,5.76
2019-01-03T15:22:55.799Z,5.72
2019-01-03T15:25:25.018Z,5.68
2019-01-03T15:27:54.017Z,5.68
2019-01-03T15:30:22.983Z,5.61
2019-01-03T15:32:52.000Z,5.56
2019-01-03T15:35:21.044Z,5.48
2019-01-03T15:37:50.450Z,5.42
2019-01-03T15:40:19.443Z,5.36
2019-01-03T15:42:48.549Z,5.29
2019-01-03T15:45:17.649Z,5.29
2019-01-03T15:47:46.645Z,5.21
2019-01-03T15:50:15.684Z,5.08
2019-01-03T15:52:44.844Z,5.05
2019-01-03T15:55:13.918Z,5.07
2019-01-03T15:57:43.029Z,4.97
2019-01-03T16:00:12.212Z,4.83
2019-01-03T16:02:41.323Z,4.83
2019-01-03T16:05:10.512Z,4.64
2019-01-03T16:07:39.560Z,4.58
2019-01-03T16:10:09.472Z,4.58
2019-01-03T16:12:38.458Z,4.52
2019-01-03T16:15:08.105Z,4.51
2019-01-03T16:17:37.148Z,4.45
2019-01-03T16:20:06.605Z,4.39
2019-01-03T16:22:35.752Z,4.41
2019-01-03T16:25:04.920Z,4.41
2019-01-03T16:27:33.963Z,4.33
2019-01-03T16:30:03.102Z,4.33
2019-01-03T16:32:34.296Z,4.39
2019-01-03T16:35:10.569Z,4.36
2019-01-03T16:37:39.589Z,4.36
2019-01-03T16:40:09.799Z,4.33
2019-01-03T16:42:42.255Z,4.25
2019-01-03T16:45:13.869Z,4.22
2019-01-03T16:47:42.901Z,4.19
2019-01-03T16:50:16.564Z,4.20
2019-01-03T16:52:45.822Z,4.22
2019-01-03T16:55:16.297Z,4.19
2019-01-03T16:57:45.317Z,4.19
2019-01-03T17:00:14.585Z,4.21
2019-01-03T17:02:43.607Z,4.25
2019-01-03T17:05:12.765Z,4.25
2019-01-03T17:07:41.866Z,4.25
2019-01-03T17:10:14.033Z,4.28
2019-01-03T17:12:43.173Z,4.18
2019-01-03T17:15:12.356Z,4.22
2019-01-03T17:17:41.420Z,4.18
2019-01-03T17:20:11.441Z,4.14
2019-01-03T17:22:40.602Z,4.14
2019-01-03T17:25:12.408Z,4.17
2019-01-03T17:27:41.593Z,4.12
2019-01-03T17:30:12.015Z,4.15
2019-01-03T17:32:41.144Z,4.09
2019-01-03T17:35:11.560Z,4.09
2019-01-03T17:37:40.615Z,4.08
2019-01-03T17:40:11.776Z,4.08
2019-01-03T17:42:41.538Z,4.11
2019-01-03T17:45:12.123Z,4.07
2019-01-03T17:47:41.215Z,4.06
2019-01-03T17:50:11.081Z,4.04
2019-01-03T17:52:40.382Z,3.98
2019-01-03T17:55:09.541Z,3.96
2019-01-03T17:57:38.809Z,3.92
2019-01-03T18:00:11.915Z,3.92
2019-01-03T18:02:43.078Z,3.93
2019-01-03T18:05:13.399Z,3.91
2019-01-03T18:07:42.400Z,3.92
2019-01-03T18:10:12.718Z,3.90
2019-01-03T18:12:41.960Z,3.90
2019-01-03T18:15:11.200Z,3.93
2019-01-03T18:17:40.262Z,3.93
2019-01-03T18:20:15.568Z,3.90
2019-01-03T18:22:44.703Z,3.90
2019-01-03T18:25:13.910Z,3.89
2019-01-03T18:27:43.214Z,3.89
2019-01-03T18:30:13.368Z,3.88
2019-01-03T18:32:42.464Z,3.86
2019-01-03T18:35:11.622Z,3.86
2019-01-03T18:37:40.834Z,3.87
2019-01-03T18:40:13.553Z,3.84
2019-01-03T18:42:42.629Z,3.84
2019-01-03T18:45:16.303Z,3.81
2019-01-03T18:47:47.176Z,3.78
2019-01-03T18:50:18.987Z,3.78
2019-01-03T18:52:46.963Z,3.79
2019-01-03T18:55:16.675Z,3.77
2019-01-03T18:57:46.898Z,3.69
2019-01-03T19:00:16.033Z,3.69
2019-01-03T19:02:45.193Z,3.69
2019-01-03T19:05:14.312Z,3.56
2019-01-03T19:07:43.308Z,3.56
2019-01-03T19:10:12.438Z,3.56
2019-01-03T19:12:41.426Z,3.56
2019-01-03T19:15:11.040Z,3.54
2019-01-03T19:17:40.077Z,3.48
2019-01-03T19:20:10.910Z,3.41
2019-01-03T19:22:40.367Z,3.41
2019-01-03T19:25:12.431Z,3.35
2019-01-03T19:27:42.881Z,3.26
2019-01-03T19:30:12.175Z,3.26
2019-01-03T19:32:41.451Z,3.14
2019-01-03T19:35:11.209Z,3.08
2019-01-03T19:37:41.858Z,3.04
2019-01-03T19:40:12.988Z,3.04
2019-01-03T19:42:42.907Z,3.06
2019-01-03T19:45:12.496Z,3.03
2019-01-03T19:47:41.637Z,2.95
2019-01-03T19:50:12.754Z,2.95
2019-01-03T19:52:41.754Z,2.89
2019-01-03T19:55:10.924Z,2.83
2019-01-03T19:57:39.978Z,2.86
2019-01-03T20:00:11.835Z,2.80
2019-01-03T20:02:40.839Z,2.74
2019-01-03T20:05:10.013Z,2.74
2019-01-03T20:07:39.478Z,2.63
2019-01-03T20:10:10.444Z,2.66
2019-01-03T20:12:39.658Z,2.63
2019-01-03T20:15:10.675Z,2.59
2019-01-03T20:17:39.809Z,2.54
2019-01-03T20:20:09.587Z,2.57
2019-01-03T20:22:38.771Z,2.58
2019-01-03T20:25:08.692Z,2.51
2019-01-03T20:27:37.959Z,2.50
2019-01-03T20:30:08.677Z,2.51
2019-01-03T20:32:37.724Z,2.48
2019-01-03T20:35:06.891Z,2.48
2019-01-03T20:37:36.455Z,2.46
2019-01-03T20:40:05.846Z,2.48
2019-01-03T20:42:34.853Z,2.43
2019-01-03T20:45:04.007Z,2.39
2019-01-03T20:47:33.083Z,2.39
2019-01-03T20:50:03.584Z,2.32
2019-01-03T20:52:32.626Z,2.32
2019-01-03T20:55:01.706Z,2.27
2019-01-03T20:57:30.818Z,2.32
2019-01-03T20:59:59.888Z,2.25
2019-01-03T21:02:28.961Z,2.23
2019-01-03T21:04:57.949Z,2.14
2019-01-03T21:07:27.078Z,2.14
2019-01-03T21:09:56.126Z,2.19
2019-01-03T21:12:26.818Z,2.19
2019-01-03T21:14:55.900Z,2.13
2019-01-03T21:17:24.922Z,2.10
2019-01-03T21:19:53.951Z,2.10
2019-01-03T21:22:23.074Z,2.09
2019-01-03T21:24:52.150Z,2.05
2019-01-03T21:27:21.176Z,2.05
2019-01-03T21:29:50.323Z,1.99
2019-01-03T21:32:19.358Z,2.01
2019-01-03T21:34:48.430Z,2.05
2019-01-03T21:37:17.511Z,2.04
2019-01-03T21:39:46.549Z,2.04
2019-01-03T21:42:15.600Z,2.26
2019-01-03T21:44:44.742Z,2.27
2019-01-03T21:47:13.830Z,2.28
2019-01-03T21:49:42.914Z,2.32
2019-01-03T21:52:12.004Z,2.36
2019-01-03T21:54:41.023Z,2.40
2019-01-03T21:57:10.094Z,2.41
2019-01-03T21:59:39.204Z,2.47
2019-01-03T22:02:08.293Z,2.46
2019-01-03T22:04:37.363Z,2.45
2019-01-03T22:07:06.587Z,2.50
2019-01-03T22:09:35.711Z,2.53
2019-01-03T22:12:04.875Z,2.55
2019-01-03T22:14:33.990Z,2.53
2019-01-03T22:17:02.986Z,2.53
2019-01-03T22:19:32.051Z,2.60
2019-01-03T22:22:01.466Z,2.63
2019-01-03T22:24:30.454Z,2.64
2019-01-03T22:26:59.428Z,2.66
2019-01-03T22:29:28.453Z,2.73
2019-01-03T22:31:57.653Z,2.73
2019-01-03T22:34:26.699Z,2.79
2019-01-03T22:36:55.813Z,2.82
2019-01-03T22:39:24.788Z,2.82
2019-01-03T22:41:53.795Z,2.87
2019-01-03T22:44:22.856Z,2.87
2019-01-03T22:46:51.871Z,2.86
2019-01-03T22:49:20.872Z,2.88
2019-01-03T22:51:49.960Z,2.88
2019-01-03T22:54:18.965Z,3.00
2019-01-03T22:56:48.002Z,3.04
2019-01-03T22:59:17.118Z,3.09
2019-01-03T23:01:46.464Z,3.09
2019-01-03T23:04:15.634Z,3.20
2019-01-03T23:06:44.811Z,3.20
2019-01-03T23:09:13.886Z,3.30
2019-01-03T23:11:42.971Z,3.34
2019-01-03T23:14:11.992Z,3.39
2019-01-03T23:16:40.992Z,3.39
2019-01-03T23:19:09.992Z,3.44
2019-01-03T23:21:39.006Z,3.50
2019-01-03T23:24:08.095Z,3.53
2019-01-03T23:26:37.100Z,3.57
2019-01-03T23:29:06.223Z,3.58
2019-01-03T23:31:35.217Z,3.60
2019-01-03T23:34:04.299Z,3.60
2019-01-03T23:36:33.404Z,3.63
2019-01-03T23:39:02.378Z,3.69
2019-01-03T23:41:31.374Z,3.70
2019-01-03T23:44:00.371Z,3.69
2019-01-03T23:46:29.579Z,3.69
2019-01-03T23:48:58.582Z,3.71
2019-01-03T23:51:27.603Z,3.73
2019-01-03T23:53:56.671Z,3.72
2019-01-03T23:56:25.744Z,3.68
2019-01-03T23:58:54.919Z,3.71
